createdAt,value
2019-05-10T00:04:03.982Z,20.20
2019-05-10T00:09:08.710Z,20.20
2019-05-10T00:14:36.131Z,20.10
2019-05-10T00:19:42.081Z,20.10
2019-05-10T00:25:02.256Z,20.10
2019-05-10T00:29:56.493Z,20.10
2019-05-10T00:35:02.554Z,20.10
2019-05-10T00:40:08.744Z,20.10
2019-05-10T00:45:14.834Z,20.10
2019-05-10T00:50:20.709Z,20.10
2019-05-10T00:55:26.535Z,20.10
2019-05-10T01:00:32.354Z,20.10
2019-05-10T01:05:37.839Z,20.10
2019-05-10T01:10:43.603Z,20.20
2019-05-10T01:15:49.319Z,20.20
2019-05-10T01:20:55.026Z,20.20
2019-05-10T01:26:00.732Z,20.20
2019-05-10T01:31:06.459Z,20.10
2019-05-10T01:36:12.141Z,20.10
2019-05-10T01:41:18.513Z,20.10
2019-05-10T01:46:24.191Z,20.10
2019-05-10T01:51:30.186Z,20.10
2019-05-10T01:56:36.009Z,20.10
2019-05-10T02:01:42.134Z,20.10
2019-05-10T02:06:48.254Z,20.10
2019-05-10T02:11:54.971Z,20.00
2019-05-10T02:17:01.032Z,20.10
2019-05-10T02:22:06.807Z,20.00
2019-05-10T02:27:13.783Z,20.10
2019-05-10T02:32:19.687Z,20.10
2019-05-10T02:37:25.329Z,20.10
2019-05-10T02:42:31.405Z,20.00
2019-05-10T02:47:37.189Z,20.10
2019-05-10T02:52:42.939Z,20.10
2019-05-10T02:57:48.758Z,20.00
2019-05-10T03:02:55.493Z,20.00
2019-05-10T03:08:02.806Z,20.00
2019-05-10T03:13:12.506Z,20.00
2019-05-10T03:18:20.199Z,20.00
2019-05-10T03:23:26.501Z,20.10
2019-05-10T03:28:33.656Z,20.00
2019-05-10T03:33:39.268Z,20.00
2019-05-10T03:38:45.325Z,20.00
2019-05-10T03:43:51.033Z,20.00
2019-05-10T03:48:57.686Z,20.10
2019-05-10T03:54:03.650Z,20.10
2019-05-10T03:59:09.310Z,20.00
2019-05-10T04:04:15.006Z,20.00
2019-05-10T04:09:20.965Z,20.00
2019-05-10T04:14:26.855Z,20.00
2019-05-10T04:19:32.538Z,20.00
2019-05-10T04:24:38.515Z,20.00
2019-05-10T04:29:44.888Z,20.10
2019-05-10T04:34:50.750Z,20.10
2019-05-10T04:39:56.368Z,20.10
2019-05-10T04:45:02.098Z,20.10
2019-05-10T04:50:07.876Z,20.10
2019-05-10T04:55:13.786Z,20.10
2019-05-10T05:00:19.530Z,20.10
2019-05-10T05:05:25.117Z,20.20
2019-05-10T05:10:30.834Z,20.20
2019-05-10T05:15:36.779Z,20.30
2019-05-10T05:20:42.387Z,20.40
2019-05-10T05:25:47.821Z,20.50
2019-05-10T05:30:53.633Z,20.60
2019-05-10T05:36:02.238Z,20.70
2019-05-10T05:41:08.378Z,20.70
2019-05-10T05:46:14.778Z,20.80
2019-05-10T05:51:20.510Z,20.80
2019-05-10T05:56:26.205Z,20.80
2019-05-10T06:01:31.870Z,20.80
2019-05-10T06:06:37.545Z,20.90
2019-05-10T06:11:43.036Z,20.90
2019-05-10T06:16:52.883Z,21.00
2019-05-10T06:22:03.778Z,21.00
2019-05-10T06:27:07.445Z,21.10
2019-05-10T06:32:13.104Z,21.20
2019-05-10T06:37:20.161Z,21.30
2019-05-10T06:42:28.832Z,21.30
2019-05-10T06:47:34.289Z,21.40
2019-05-10T06:52:40.049Z,21.40
2019-05-10T06:57:50.544Z,21.50
2019-05-10T07:02:53.122Z,21.50
2019-05-10T07:08:14.016Z,21.60
2019-05-10T07:13:06.826Z,21.70
2019-05-10T07:18:16.938Z,21.70
2019-05-10T07:23:20.004Z,21.80
2019-05-10T07:28:26.785Z,21.90
2019-05-10T07:33:37.361Z,22.00
2019-05-10T07:38:40.435Z,22.00
2019-05-10T07:43:48.251Z,22.10
2019-05-10T07:48:54.076Z,22.20
2019-05-10T07:54:04.669Z,22.30
2019-05-10T07:59:07.138Z,22.50
2019-05-10T08:04:13.262Z,22.60
2019-05-10T08:09:19.355Z,22.70
2019-05-10T08:14:25.603Z,22.90
2019-05-10T08:19:37.058Z,22.90
2019-05-10T08:24:46.441Z,23.10
2019-05-10T08:29:52.899Z,23.30
2019-05-10T08:34:55.902Z,23.50
2019-05-10T08:40:03.179Z,23.60
2019-05-10T08:45:09.479Z,23.80
2019-05-10T08:50:34.423Z,24.00
2019-05-10T08:55:22.700Z,24.20
2019-05-10T09:00:41.532Z,24.30
2019-05-10T09:05:39.781Z,24.40
2019-05-10T09:10:44.096Z,24.50
2019-05-10T09:15:56.046Z,24.60
2019-05-10T09:21:00.405Z,24.70
2019-05-10T09:26:10.099Z,24.70
2019-05-10T09:31:22.687Z,24.80
2019-05-10T09:36:23.127Z,24.80
2019-05-10T09:41:27.703Z,24.90
2019-05-10T09:46:34.456Z,25.00
2019-05-10T09:51:42.258Z,25.10
2019-05-10T09:56:51.974Z,25.20
2019-05-10T10:01:57.153Z,25.20
2019-05-10T10:07:02.828Z,25.30
2019-05-10T10:12:09.757Z,25.50
2019-05-10T10:17:18.442Z,25.50
2019-05-10T10:22:23.363Z,25.60
2019-05-10T10:27:34.733Z,25.70
2019-05-10T10:32:37.559Z,25.70
2019-05-10T10:37:43.711Z,25.70
2019-05-10T10:42:49.385Z,25.80
2019-05-10T10:47:57.292Z,25.90
2019-05-10T10:53:02.744Z,26.10
2019-05-10T10:58:08.502Z,26.30
2019-05-10T11:03:14.166Z,26.50
2019-05-10T11:08:21.968Z,26.80
2019-05-10T11:13:41.392Z,27.00
2019-05-10T11:18:34.873Z,27.10
2019-05-10T11:23:41.913Z,27.30
2019-05-10T11:28:48.036Z,27.40
2019-05-10T11:33:58.397Z,27.70
2019-05-10T11:39:01.762Z,27.90
2019-05-10T11:44:11.207Z,28.10
2019-05-10T11:49:16.057Z,28.30
2019-05-10T11:54:21.790Z,28.60
2019-05-10T11:59:33.936Z,28.70
2019-05-10T12:04:39.243Z,28.90
2019-05-10T12:09:42.870Z,29.00
2019-05-10T12:14:48.543Z,29.20
2019-05-10T12:19:56.384Z,29.30
2019-05-10T12:25:27.217Z,29.30
2019-05-10T12:30:11.602Z,29.40
2019-05-10T12:35:17.556Z,29.40
2019-05-10T12:40:24.151Z,29.50
2019-05-10T12:45:31.442Z,29.50
2019-05-10T12:50:37.483Z,29.60
2019-05-10T12:55:42.994Z,29.70
2019-05-10T13:00:52.525Z,29.80
2019-05-10T13:05:59.253Z,30.00
2019-05-10T13:11:05.056Z,30.10
2019-05-10T13:16:11.933Z,30.20
2019-05-10T13:21:20.876Z,30.30
2019-05-10T13:26:25.902Z,30.40
2019-05-10T13:31:32.153Z,30.40
2019-05-10T13:36:39.202Z,30.40
2019-05-10T13:41:45.200Z,30.40
2019-05-10T13:46:50.962Z,30.40
2019-05-10T13:51:57.213Z,30.30
2019-05-10T13:57:02.996Z,30.30
2019-05-10T14:02:08.903Z,30.10
2019-05-10T14:07:14.498Z,30.00
2019-05-10T14:12:23.447Z,29.90
2019-05-10T14:17:27.512Z,29.80
2019-05-10T14:22:33.274Z,29.70
2019-05-10T14:27:38.904Z,29.70
2019-05-10T14:32:44.652Z,29.60
2019-05-10T14:37:50.301Z,29.50
2019-05-10T14:42:55.982Z,29.40
2019-05-10T14:48:01.716Z,29.30
2019-05-10T14:53:07.478Z,29.10
2019-05-10T14:58:13.343Z,29.00
2019-05-10T15:03:19.042Z,28.80
2019-05-10T15:08:25.141Z,28.60
2019-05-10T15:13:34.583Z,28.40
2019-05-10T15:18:38.381Z,28.20
2019-05-10T15:23:44.082Z,28.10
2019-05-10T15:28:49.831Z,27.90
2019-05-10T15:33:55.599Z,27.70
2019-05-10T15:39:01.295Z,27.60
2019-05-10T15:44:08.153Z,27.40
2019-05-10T15:49:22.539Z,27.30
2019-05-10T15:54:21.029Z,27.20
2019-05-10T15:59:26.656Z,27.00
2019-05-10T16:04:33.981Z,26.90
2019-05-10T16:09:39.764Z,26.80
2019-05-10T16:14:45.856Z,26.60
2019-05-10T16:19:59.558Z,26.50
2019-05-10T16:25:02.456Z,26.40
2019-05-10T16:30:11.863Z,26.30
2019-05-10T16:35:14.844Z,26.10
2019-05-10T16:40:20.551Z,26.00
2019-05-10T16:45:26.208Z,25.90
2019-05-10T16:50:33.778Z,25.80
2019-05-10T16:55:41.034Z,25.70
2019-05-10T17:00:47.879Z,25.70
2019-05-10T17:05:58.327Z,25.60
2019-05-10T17:11:09.567Z,25.50
2019-05-10T17:16:11.645Z,25.30
2019-05-10T17:21:15.114Z,25.20
2019-05-10T17:26:20.760Z,25.10
2019-05-10T17:31:26.368Z,25.00
2019-05-10T17:36:31.814Z,24.90
2019-05-10T17:41:37.393Z,24.80
2019-05-10T17:46:43.048Z,24.70
2019-05-10T17:51:49.137Z,24.60
2019-05-10T17:56:55.250Z,24.50
2019-05-10T18:02:00.745Z,24.50
2019-05-10T18:07:06.226Z,24.40
2019-05-10T18:12:15.500Z,24.40
2019-05-10T18:17:20.763Z,24.40
2019-05-10T18:22:27.467Z,24.40
2019-05-10T18:27:32.924Z,24.30
2019-05-10T18:32:38.459Z,24.30
2019-05-10T18:37:44.030Z,24.30
2019-05-10T18:42:49.519Z,24.20
2019-05-10T18:47:54.974Z,24.20
2019-05-10T18:53:00.429Z,24.10
2019-05-10T18:58:05.897Z,24.10
2019-05-10T19:03:11.537Z,24.00
2019-05-10T19:08:17.083Z,23.90
2019-05-10T19:13:22.978Z,23.90
2019-05-10T19:18:28.721Z,23.70
2019-05-10T19:23:34.178Z,23.70
2019-05-10T19:28:39.644Z,23.60
2019-05-10T19:33:45.626Z,23.50
2019-05-10T19:38:51.078Z,23.40
2019-05-10T19:44:02.553Z,23.30
2019-05-10T19:49:07.463Z,23.20
2019-05-10T19:54:13.520Z,23.10
2019-05-10T19:59:20.355Z,23.00
2019-05-10T20:04:25.863Z,22.90
2019-05-10T20:09:31.380Z,22.80
2019-05-10T20:14:36.905Z,22.70
2019-05-10T20:19:42.467Z,22.60
2019-05-10T20:24:47.921Z,22.60
2019-05-10T20:29:53.429Z,22.50
2019-05-10T20:34:59.048Z,22.40
2019-05-10T20:40:04.675Z,22.30
2019-05-10T20:45:10.274Z,22.20
2019-05-10T20:50:15.959Z,22.10
2019-05-10T20:55:21.514Z,22.10
2019-05-10T21:00:26.999Z,22.10
2019-05-10T21:05:32.677Z,22.00
2019-05-10T21:10:38.219Z,21.90
2019-05-10T21:15:43.762Z,21.90
2019-05-10T21:20:49.441Z,21.90
2019-05-10T21:25:55.022Z,21.80
2019-05-10T21:31:01.605Z,21.80
2019-05-10T21:36:07.113Z,21.80
2019-05-10T21:41:12.832Z,21.80
2019-05-10T21:46:18.516Z,21.80
2019-05-10T21:51:23.974Z,21.80
2019-05-10T21:56:29.428Z,21.80
2019-05-10T22:01:34.897Z,21.80
2019-05-10T22:06:40.558Z,21.70
2019-05-10T22:11:46.096Z,21.70
2019-05-10T22:16:51.561Z,21.70
2019-05-10T22:21:57.075Z,21.70
2019-05-10T22:27:02.674Z,21.70
2019-05-10T22:32:08.185Z,21.70
2019-05-10T22:37:13.658Z,21.80
2019-05-10T22:42:19.082Z,21.70
2019-05-10T22:47:25.477Z,21.70
2019-05-10T22:52:31.111Z,21.70
2019-05-10T22:57:36.581Z,21.80
2019-05-10T23:02:42.086Z,21.70
2019-05-10T23:07:47.596Z,21.70
2019-05-10T23:12:54.634Z,21.70
2019-05-10T23:18:00.264Z,21.70
2019-05-10T23:23:05.780Z,21.70
2019-05-10T23:28:11.276Z,21.60
2019-05-10T23:33:16.818Z,21.60
2019-05-10T23:38:22.316Z,21.60
2019-05-10T23:43:27.776Z,21.60
2019-05-10T23:48:33.390Z,21.50
2019-05-10T23:53:38.974Z,21.50
2019-05-10T23:58:45.549Z,21.50
